Rhum Marin — FAE4673 — position and weather

sailwx.info

Track history (hours):
 
Tides and Currents Weather Stations Pressure Air Temp Water Temp Dewpoint Dewpoint Depression Visibility Wind Speed Wind Dir Waves Ship Positions

Rhum Marin

Last reported at 2018-Jul-21 18:30 UTC. Time now 2018-Jul-21 18:48 UTC.
Position N 46°09' W 001°10'.

Length 12 m.

Type: Pleasure craft. MMSI: 227479020.

Date/timePositionNaut miles runAvg speedWind from/ knotsBaromVisibWave heightAir tempDewpointWater temp
2018-Jul-21 18:30N 46°09' W 001°10'0 1.0
2018-Jul-21 18:00N 46°09' W 001°09'2 3.3
2018-Jul-21 17:30N 46°08' W 001°11'3 5.5
2018-Jul-21 16:59N 46°05' W 001°10'2 3.9
2018-Jul-21 16:30N 46°07' W 001°11'2 3.7
2018-Jul-21 16:00N 46°09' W 001°10'1 1.2
2018-Jul-21 15:30N 46°09' W 001°09'0 0.0
2018-Jul-21 15:00N 46°09' W 001°09'0 0.1
2018-Jul-21 14:29N 46°09' W 001°09'5 5.0
2018-Jul-21 13:30N 46°05' W 001°11'3 0.7
2018-Jul-21 09:39N 46°02' W 001°12'1 3.1
2018-Jul-21 09:29N 46°03' W 001°13'2 3.7
2018-Jul-21 09:00N 46°04' W 001°13'3 5.8
2018-Jul-21 08:30N 46°07' W 001°12'2 4.9
2018-Jul-21 08:00N 46°09' W 001°10'0 0.3
2018-Jul-21 07:20N 46°09' W 001°09'0 0.0
2018-Jul-20 20:53N 46°09' W 001°09'1 2.6
2018-Jul-20 20:30N 46°09' W 001°11'3 5.8
2018-Jul-20 20:00N 46°09' W 001°15'3 5.7
2018-Jul-20 19:30N 46°12' W 001°17'3 5.6
2018-Jul-20 19:00N 46°13' W 001°21'0 0.4
2018-Jul-20 18:30N 46°13' W 001°21'0 0.8
2018-Jul-20 18:00N 46°13' W 001°22'1 0.8
2018-Jul-20 17:19N 46°12' W 001°22'1 2.4
2018-Jul-20 16:59N 46°13' W 001°21'1 1.9
2018-Jul-20 16:30N 46°13' W 001°20'2 3.3
2018-Jul-20 16:00N 46°12' W 001°18'2 5.0
2018-Jul-20 15:30N 46°10' W 001°15'3 4.9
2018-Jul-20 15:00N 46°09' W 001°13'2 4.1
2018-Jul-20 14:26N 46°09' W 001°10'0 0.0
2018-Jul-20 13:56N 46°09' W 001°10'0 0.0
2018-Jul-18 18:46N 46°09' W 001°10'1 4.4
2018-Jul-18 18:28N 46°09' W 001°12'3 5.7
2018-Jul-18 18:00N 46°09' W 001°15'0 0.3
2018-Jul-18 17:30N 46°09' W 001°15'0 0.0
2018-Jul-18 17:00N 46°09' W 001°16'1 2.6
2018-Jul-18 16:30N 46°08' W 001°14'2 4.8
2018-Jul-18 16:00N 46°09' W 001°11'1 0.9
2018-Jul-18 15:20N 46°09' W 001°10'1 2.8
2018-Jul-18 15:00N 46°09' W 001°11'2 3.2
2018-Jul-18 14:30N 46°09' W 001°13'1 1.4
2018-Jul-18 13:30N 46°07' W 001°15'1 2.5
2018-Jul-18 12:59N 46°06' W 001°15'3 6.2
2018-Jul-18 12:30N 46°08' W 001°12'1 2.6
2018-Jul-18 11:57N 46°09' W 001°10'0 0.0
2018-Jul-18 11:21N 46°09' W 001°10'0 0.0
2018-Jul-16 19:49N 46°09' W 001°10'0 1.5
2018-Jul-16 19:30N 46°09' W 001°09'0 0.0
2018-Jul-16 19:00N 46°09' W 001°09'0 0.0
2018-Jul-16 18:30N 46°09' W 001°09'0 0.0
2018-Jul-16 18:00N 46°09' W 001°09'0 0.7
2018-Jul-16 17:30N 46°09' W 001°10'3 5.0
2018-Jul-16 17:00N 46°07' W 001°12'2 4.6
2018-Jul-16 16:30N 46°09' W 001°10'1 1.3
2018-Jul-16 16:00N 46°09' W 001°09'0 0.9
2018-Jul-16 15:28N 46°09' W 001°10'0 0.0
2018-Jul-15 14:38N 46°09' W 001°10'0 0.0
2018-Jul-15 14:28N 46°09' W 001°10'0 0.5
2018-Jul-15 13:56N 46°09' W 001°10'1 3.5
2018-Jul-15 13:30N 46°08' W 001°12'2 4.5
2018-Jul-15 13:00N 46°08' W 001°15'2 2.9
2018-Jul-15 12:29N 46°09' W 001°15'0 0.0
2018-Jul-15 11:59N 46°09' W 001°15'0 0.0
2018-Jul-15 11:29N 46°09' W 001°15'0 0.0
2018-Jul-15 10:56N 46°09' W 001°15'1 2.0
2018-Jul-15 10:30N 46°09' W 001°14'3 5.3
2018-Jul-15 09:59N 46°09' W 001°10'0 0.3
2018-Jul-15 09:29N 46°09' W 001°10'0 0.6
2018-Jul-15 09:00N 46°09' W 001°10'0 0.0
2018-Jul-14 22:35N 46°09' W 001°10'0 0.1
2018-Jul-14 22:28N 46°09' W 001°10'0 0.5
2018-Jul-14 21:55N 46°09' W 001°10'0 0.0
2018-Jul-14 21:28N 46°09' W 001°10'0 0.6
2018-Jul-14 20:49N 46°09' W 001°11'1 1.6
2018-Jul-14 20:30N 46°09' W 001°11'2 3.1
2018-Jul-14 19:59N 46°08' W 001°14'2 3.5
2018-Jul-14 19:30N 46°08' W 001°16'1 2.2
2018-Jul-14 19:00N 46°07' W 001°14'2 4.8
2018-Jul-14 18:29N 46°09' W 001°11'1 1.7
2018-Jul-14 18:00N 46°09' W 001°10'0 0.2
2018-Jul-14 17:28N 46°09' W 001°10'0 0.0
2018-Jul-14 15:40N 46°09' W 001°10'0 1.8
2018-Jul-14 15:30N 46°09' W 001°10'1 1.5
2018-Jul-14 15:00N 46°09' W 001°11'3 5.8
2018-Jul-14 14:30N 46°10' W 001°15'8 7.5
2018-Jul-14 13:27N 46°15' W 001°24'19 7.5
2018-Jul-14 10:52N 46°27' W 001°46'4 5.9
2018-Jul-14 10:13N 46°29' W 001°51'75 6.9
2018-Jul-13 23:14N 47°24' W 003°06'2 7.0
2018-Jul-13 23:00N 47°25' W 003°07'3 6.7
2018-Jul-13 22:29N 47°28' W 003°10'3 6.6
2018-Jul-13 22:00N 47°30' W 003°13'3 6.4
2018-Jul-13 21:30N 47°33' W 003°16'3 6.9
2018-Jul-13 21:00N 47°36' W 003°18'4 7.2
2018-Jul-13 20:30N 47°39' W 003°21'3 6.8
2018-Jul-13 20:00N 47°43' W 003°22'1 1.2
2018-Jul-13 19:30N 47°43' W 003°22'0 0.0
2018-Jul-13 19:00N 47°43' W 003°22'0 0.0
2018-Jul-13 18:30N 47°43' W 003°22'0 0.0
2018-Jul-13 16:12N 47°43' W 003°22'0 0.0
2018-Jul-13 15:59N 47°43' W 003°22'0 0.1
2018-Jul-13 15:01N 47°43' W 003°22'0 0.0
2018-Jul-13 14:58N 47°43' W 003°22'0 0.2
2018-Jul-13 14:30N 47°43' W 003°22'5 5.2
2018-Jul-13 13:30N 47°38' W 003°25'0 0.0
2018-Jul-13 12:58N 47°38' W 003°25'0 0.0
2018-Jul-13 12:28N 47°38' W 003°25'0 0.0
2018-Jul-13 11:58N 47°38' W 003°25'2 3.6
2018-Jul-13 11:30N 47°37' W 003°24'3 5.0
2018-Jul-13 11:00N 47°35' W 003°22'3 5.0
2018-Jul-13 10:30N 47°33' W 003°20'3 5.1
2018-Jul-13 10:00N 47°30' W 003°18'2 4.9
2018-Jul-13 09:30N 47°28' W 003°16'2 4.6
2018-Jul-13 09:00N 47°26' W 003°15'2 3.8
2018-Jul-13 08:30N 47°25' W 003°13'3 0.2
2018-Jul-12 16:46N 47°23' W 003°10'1 4.5
2018-Jul-12 16:30N 47°23' W 003°12'9 3.4
2018-Jul-12 13:45N 47°28' W 003°01'1 4.3
2018-Jul-12 13:29N 47°28' W 002°59'0 0.6
2018-Jul-12 12:56N 47°28' W 002°59'1 1.8
2018-Jul-12 12:29N 47°28' W 002°58'1 2.5
2018-Jul-12 11:57N 47°29' W 002°56'2 3.7
2018-Jul-12 11:29N 47°31' W 002°56'2 0.2
2018-Jul-11 23:59N 47°33' W 002°54'0 0.0
2018-Jul-11 23:20N 47°33' W 002°54'0 0.0
2018-Jul-11 22:50N 47°33' W 002°54'0 0.0
2018-Jul-11 22:26N 47°33' W 002°54'0 0.0
2018-Jul-11 21:50N 47°33' W 002°54'  
Track history (hours):
 
Tides and Currents Weather Stations Pressure Air Temp Water Temp Dewpoint Dewpoint Depression Visibility Wind Speed Wind Dir Waves Ship Positions

Rhum Marin

Last reported at 2018-Jul-21 18:30 UTC. Time now 2018-Jul-21 18:48 UTC.
Position N 46°09' W 001°10'.

Length 12 m.

Type: Pleasure craft. MMSI: 227479020.

Date/timePositionNaut miles runAvg speedWind from/ knotsBaromVisibWave heightAir tempDewpointWater temp
2018-Jul-21 18:30N 46°09' W 001°10'0 1.0
2018-Jul-21 18:00N 46°09' W 001°09'2 3.3
2018-Jul-21 17:30N 46°08' W 001°11'3 5.5
2018-Jul-21 16:59N 46°05' W 001°10'2 3.9
2018-Jul-21 16:30N 46°07' W 001°11'2 3.7
2018-Jul-21 16:00N 46°09' W 001°10'1 1.2
2018-Jul-21 15:30N 46°09' W 001°09'0 0.0
2018-Jul-21 15:00N 46°09' W 001°09'0 0.1
2018-Jul-21 14:29N 46°09' W 001°09'5 5.0
2018-Jul-21 13:30N 46°05' W 001°11'3 0.7
2018-Jul-21 09:39N 46°02' W 001°12'1 3.1
2018-Jul-21 09:29N 46°03' W 001°13'2 3.7
2018-Jul-21 09:00N 46°04' W 001°13'3 5.8
2018-Jul-21 08:30N 46°07' W 001°12'2 4.9
2018-Jul-21 08:00N 46°09' W 001°10'0 0.3
2018-Jul-21 07:20N 46°09' W 001°09'0 0.0
2018-Jul-20 20:53N 46°09' W 001°09'1 2.6
2018-Jul-20 20:30N 46°09' W 001°11'3 5.8
2018-Jul-20 20:00N 46°09' W 001°15'3 5.7
2018-Jul-20 19:30N 46°12' W 001°17'3 5.6
2018-Jul-20 19:00N 46°13' W 001°21'0 0.4
2018-Jul-20 18:30N 46°13' W 001°21'0 0.8
2018-Jul-20 18:00N 46°13' W 001°22'1 0.8
2018-Jul-20 17:19N 46°12' W 001°22'1 2.4
2018-Jul-20 16:59N 46°13' W 001°21'1 1.9
2018-Jul-20 16:30N 46°13' W 001°20'2 3.3
2018-Jul-20 16:00N 46°12' W 001°18'2 5.0
2018-Jul-20 15:30N 46°10' W 001°15'3 4.9
2018-Jul-20 15:00N 46°09' W 001°13'2 4.1
2018-Jul-20 14:26N 46°09' W 001°10'0 0.0
2018-Jul-20 13:56N 46°09' W 001°10'0 0.0
2018-Jul-18 18:46N 46°09' W 001°10'1 4.4
2018-Jul-18 18:28N 46°09' W 001°12'3 5.7
2018-Jul-18 18:00N 46°09' W 001°15'0 0.3
2018-Jul-18 17:30N 46°09' W 001°15'0 0.0
2018-Jul-18 17:00N 46°09' W 001°16'1 2.6
2018-Jul-18 16:30N 46°08' W 001°14'2 4.8
2018-Jul-18 16:00N 46°09' W 001°11'1 0.9
2018-Jul-18 15:20N 46°09' W 001°10'1 2.8
2018-Jul-18 15:00N 46°09' W 001°11'2 3.2
2018-Jul-18 14:30N 46°09' W 001°13'1 1.4
2018-Jul-18 13:30N 46°07' W 001°15'1 2.5
2018-Jul-18 12:59N 46°06' W 001°15'3 6.2
2018-Jul-18 12:30N 46°08' W 001°12'1 2.6
2018-Jul-18 11:57N 46°09' W 001°10'0 0.0
2018-Jul-18 11:21N 46°09' W 001°10'0 0.0
2018-Jul-16 19:49N 46°09' W 001°10'0 1.5
2018-Jul-16 19:30N 46°09' W 001°09'0 0.0
2018-Jul-16 19:00N 46°09' W 001°09'0 0.0
2018-Jul-16 18:30N 46°09' W 001°09'0 0.0
2018-Jul-16 18:00N 46°09' W 001°09'0 0.7
2018-Jul-16 17:30N 46°09' W 001°10'3 5.0
2018-Jul-16 17:00N 46°07' W 001°12'2 4.6
2018-Jul-16 16:30N 46°09' W 001°10'1 1.3
2018-Jul-16 16:00N 46°09' W 001°09'0 0.9
2018-Jul-16 15:28N 46°09' W 001°10'0 0.0
2018-Jul-15 14:38N 46°09' W 001°10'0 0.0
2018-Jul-15 14:28N 46°09' W 001°10'0 0.5
2018-Jul-15 13:56N 46°09' W 001°10'1 3.5
2018-Jul-15 13:30N 46°08' W 001°12'2 4.5
2018-Jul-15 13:00N 46°08' W 001°15'2 2.9
2018-Jul-15 12:29N 46°09' W 001°15'0 0.0
2018-Jul-15 11:59N 46°09' W 001°15'0 0.0
2018-Jul-15 11:29N 46°09' W 001°15'0 0.0
2018-Jul-15 10:56N 46°09' W 001°15'1 2.0
2018-Jul-15 10:30N 46°09' W 001°14'3 5.3
2018-Jul-15 09:59N 46°09' W 001°10'0 0.3
2018-Jul-15 09:29N 46°09' W 001°10'0 0.6
2018-Jul-15 09:00N 46°09' W 001°10'0 0.0
2018-Jul-14 22:35N 46°09' W 001°10'0 0.1
2018-Jul-14 22:28N 46°09' W 001°10'0 0.5
2018-Jul-14 21:55N 46°09' W 001°10'0 0.0
2018-Jul-14 21:28N 46°09' W 001°10'0 0.6
2018-Jul-14 20:49N 46°09' W 001°11'1 1.6
2018-Jul-14 20:30N 46°09' W 001°11'2 3.1
2018-Jul-14 19:59N 46°08' W 001°14'2 3.5
2018-Jul-14 19:30N 46°08' W 001°16'1 2.2
2018-Jul-14 19:00N 46°07' W 001°14'2 4.8
2018-Jul-14 18:29N 46°09' W 001°11'1 1.7
2018-Jul-14 18:00N 46°09' W 001°10'0 0.2
2018-Jul-14 17:28N 46°09' W 001°10'0 0.0
2018-Jul-14 15:40N 46°09' W 001°10'0 1.8
2018-Jul-14 15:30N 46°09' W 001°10'1 1.5
2018-Jul-14 15:00N 46°09' W 001°11'3 5.8
2018-Jul-14 14:30N 46°10' W 001°15'8 7.5
2018-Jul-14 13:27N 46°15' W 001°24'19 7.5
2018-Jul-14 10:52N 46°27' W 001°46'4 5.9
2018-Jul-14 10:13N 46°29' W 001°51'75 6.9
2018-Jul-13 23:14N 47°24' W 003°06'2 7.0
2018-Jul-13 23:00N 47°25' W 003°07'3 6.7
2018-Jul-13 22:29N 47°28' W 003°10'3 6.6
2018-Jul-13 22:00N 47°30' W 003°13'3 6.4
2018-Jul-13 21:30N 47°33' W 003°16'3 6.9
2018-Jul-13 21:00N 47°36' W 003°18'4 7.2
2018-Jul-13 20:30N 47°39' W 003°21'3 6.8
2018-Jul-13 20:00N 47°43' W 003°22'1 1.2
2018-Jul-13 19:30N 47°43' W 003°22'0 0.0
2018-Jul-13 19:00N 47°43' W 003°22'0 0.0
2018-Jul-13 18:30N 47°43' W 003°22'0 0.0
2018-Jul-13 16:12N 47°43' W 003°22'0 0.0
2018-Jul-13 15:59N 47°43' W 003°22'0 0.1
2018-Jul-13 15:01N 47°43' W 003°22'0 0.0
2018-Jul-13 14:58N 47°43' W 003°22'0 0.2
2018-Jul-13 14:30N 47°43' W 003°22'5 5.2
2018-Jul-13 13:30N 47°38' W 003°25'0 0.0
2018-Jul-13 12:58N 47°38' W 003°25'0 0.0
2018-Jul-13 12:28N 47°38' W 003°25'0 0.0
2018-Jul-13 11:58N 47°38' W 003°25'2 3.6
2018-Jul-13 11:30N 47°37' W 003°24'3 5.0
2018-Jul-13 11:00N 47°35' W 003°22'3 5.0
2018-Jul-13 10:30N 47°33' W 003°20'3 5.1
2018-Jul-13 10:00N 47°30' W 003°18'2 4.9
2018-Jul-13 09:30N 47°28' W 003°16'2 4.6
2018-Jul-13 09:00N 47°26' W 003°15'2 3.8
2018-Jul-13 08:30N 47°25' W 003°13'3 0.2
2018-Jul-12 16:46N 47°23' W 003°10'1 4.5
2018-Jul-12 16:30N 47°23' W 003°12'9 3.4
2018-Jul-12 13:45N 47°28' W 003°01'1 4.3
2018-Jul-12 13:29N 47°28' W 002°59'0 0.6
2018-Jul-12 12:56N 47°28' W 002°59'1 1.8
2018-Jul-12 12:29N 47°28' W 002°58'1 2.5
2018-Jul-12 11:57N 47°29' W 002°56'2 3.7
2018-Jul-12 11:29N 47°31' W 002°56'2 0.2
2018-Jul-11 23:59N 47°33' W 002°54'0 0.0
2018-Jul-11 23:20N 47°33' W 002°54'0 0.0
2018-Jul-11 22:50N 47°33' W 002°54'0 0.0
2018-Jul-11 22:26N 47°33' W 002°54'0 0.0
2018-Jul-11 21:50N 47°33' W 002°54'  

Dump ship's entire track history